sensor_id;sensor_type;location;lat;lon;timestamp;P1;durP1;ratioP1;P2;durP2;ratioP2
9459;SDS011;4768;42.664;23.240;2022-10-13T00:00:43;9.47;;;6.37;;
9459;SDS011;4768;42.664;23.240;2022-10-13T00:03:11;9.40;;;6.30;;
9459;SDS011;4768;42.664;23.240;2022-10-13T00:05:39;10.53;;;6.00;;
9459;SDS011;4768;42.664;23.240;2022-10-13T00:08:06;10.63;;;6.30;;
9459;SDS011;4768;42.664;23.240;2022-10-13T00:10:34;10.27;;;7.03;;
9459;SDS011;4768;42.664;23.240;2022-10-13T00:13:02;9.53;;;7.30;;
9459;SDS011;4768;42.664;23.240;2022-10-13T00:15:31;9.73;;;6.83;;
9459;SDS011;4768;42.664;23.240;2022-10-13T00:17:58;10.00;;;7.33;;
9459;SDS011;4768;42.664;23.240;2022-10-13T00:20:24;10.67;;;7.30;;
9459;SDS011;4768;42.664;23.240;2022-10-13T00:22:51;13.27;;;7.10;;
9459;SDS011;4768;42.664;23.240;2022-10-13T00:25:18;8.90;;;6.43;;
9459;SDS011;4768;42.664;23.240;2022-10-13T00:27:44;9.20;;;7.33;;
9459;SDS011;4768;42.664;23.240;2022-10-13T00:30:11;11.17;;;6.73;;
9459;SDS011;4768;42.664;23.240;2022-10-13T00:32:39;10.07;;;7.47;;
9459;SDS011;4768;42.664;23.240;2022-10-13T00:35:06;13.60;;;8.47;;
9459;SDS011;4768;42.664;23.240;2022-10-13T00:37:33;13.57;;;9.33;;
9459;SDS011;4768;42.664;23.240;2022-10-13T00:40:00;12.07;;;8.77;;
9459;SDS011;4768;42.664;23.240;2022-10-13T00:42:27;12.30;;;9.33;;
9459;SDS011;4768;42.664;23.240;2022-10-13T00:44:59;17.50;;;10.17;;
9459;SDS011;4768;42.664;23.240;2022-10-13T00:47:30;18.03;;;10.57;;
9459;SDS011;4768;42.664;23.240;2022-10-13T00:50:01;19.00;;;11.17;;
9459;SDS011;4768;42.664;23.240;2022-10-13T00:52:30;24.10;;;13.77;;
9459;SDS011;4768;42.664;23.240;2022-10-13T00:54:58;18.77;;;11.73;;
9459;SDS011;4768;42.664;23.240;2022-10-13T00:57:26;23.37;;;13.27;;
9459;SDS011;4768;42.664;23.240;2022-10-13T00:59:53;21.57;;;13.60;;
9459;SDS011;4768;42.664;23.240;2022-10-13T01:02:20;21.63;;;13.40;;
9459;SDS011;4768;42.664;23.240;2022-10-13T01:04:49;23.43;;;15.97;;
9459;SDS011;4768;42.664;23.240;2022-10-13T01:07:18;22.13;;;14.40;;
9459;SDS011;4768;42.664;23.240;2022-10-13T01:09:45;23.27;;;14.07;;
9459;SDS011;4768;42.664;23.240;2022-10-13T01:12:15;18.57;;;12.70;;
9459;SDS011;4768;42.664;23.240;2022-10-13T01:14:52;14.83;;;9.67;;
9459;SDS011;4768;42.664;23.240;2022-10-13T01:17:27;11.37;;;8.30;;
9459;SDS011;4768;42.664;23.240;2022-10-13T01:20:08;17.03;;;11.00;;
9459;SDS011;4768;42.664;23.240;2022-10-13T01:22:54;14.30;;;9.97;;
9459;SDS011;4768;42.664;23.240;2022-10-13T01:25:37;15.73;;;10.87;;
9459;SDS011;4768;42.664;23.240;2022-10-13T01:28:22;17.27;;;12.07;;
9459;SDS011;4768;42.664;23.240;2022-10-13T01:31:01;16.97;;;12.03;;
9459;SDS011;4768;42.664;23.240;2022-10-13T01:33:34;18.30;;;12.33;;
9459;SDS011;4768;42.664;23.240;2022-10-13T01:36:10;20.20;;;12.57;;
9459;SDS011;4768;42.664;23.240;2022-10-13T01:38:44;19.07;;;12.70;;
9459;SDS011;4768;42.664;23.240;2022-10-13T01:41:16;17.53;;;11.70;;
9459;SDS011;4768;42.664;23.240;2022-10-13T01:43:49;22.10;;;13.40;;
9459;SDS011;4768;42.664;23.240;2022-10-13T01:46:22;19.60;;;12.67;;
9459;SDS011;4768;42.664;23.240;2022-10-13T01:48:52;20.23;;;12.43;;
9459;SDS011;4768;42.664;23.240;2022-10-13T01:51:21;18.67;;;12.60;;
9459;SDS011;4768;42.664;23.240;2022-10-13T01:53:49;19.77;;;11.87;;
9459;SDS011;4768;42.664;23.240;2022-10-13T01:56:16;19.37;;;11.93;;
9459;SDS011;4768;42.664;23.240;2022-10-13T01:58:43;17.20;;;11.53;;
9459;SDS011;4768;42.664;23.240;2022-10-13T02:01:16;14.77;;;10.63;;
9459;SDS011;4768;42.664;23.240;2022-10-13T02:03:56;21.33;;;10.80;;
9459;SDS011;4768;42.664;23.240;2022-10-13T02:06:37;17.60;;;10.27;;
9459;SDS011;4768;42.664;23.240;2022-10-13T02:09:10;16.67;;;11.17;;
9459;SDS011;4768;42.664;23.240;2022-10-13T02:11:44;18.47;;;10.93;;
9459;SDS011;4768;42.664;23.240;2022-10-13T02:14:15;18.90;;;12.10;;
9459;SDS011;4768;42.664;23.240;2022-10-13T02:16:49;20.37;;;12.43;;
9459;SDS011;4768;42.664;23.240;2022-10-13T02:19:17;17.47;;;10.10;;
9459;SDS011;4768;42.664;23.240;2022-10-13T02:21:44;17.17;;;9.53;;
9459;SDS011;4768;42.664;23.240;2022-10-13T02:24:12;15.00;;;10.33;;
9459;SDS011;4768;42.664;23.240;2022-10-13T02:26:39;33.57;;;16.57;;
9459;SDS011;4768;42.664;23.240;2022-10-13T02:29:07;14.47;;;10.33;;
9459;SDS011;4768;42.664;23.240;2022-10-13T02:31:35;48.70;;;24.37;;
9459;SDS011;4768;42.664;23.240;2022-10-13T02:34:03;60.60;;;27.47;;
9459;SDS011;4768;42.664;23.240;2022-10-13T02:36:30;49.50;;;24.10;;
9459;SDS011;4768;42.664;23.240;2022-10-13T02:38:57;36.57;;;17.23;;
9459;SDS011;4768;42.664;23.240;2022-10-13T02:41:24;29.40;;;15.93;;
9459;SDS011;4768;42.664;23.240;2022-10-13T02:43:51;85.37;;;33.93;;
9459;SDS011;4768;42.664;23.240;2022-10-13T02:46:18;67.40;;;27.03;;
9459;SDS011;4768;42.664;23.240;2022-10-13T02:48:44;54.07;;;24.40;;
9459;SDS011;4768;42.664;23.240;2022-10-13T02:51:12;33.17;;;18.80;;
9459;SDS011;4768;42.664;23.240;2022-10-13T02:53:39;32.30;;;18.50;;
9459;SDS011;4768;42.664;23.240;2022-10-13T02:56:06;29.67;;;17.77;;
9459;SDS011;4768;42.664;23.240;2022-10-13T02:58:32;37.13;;;21.33;;
9459;SDS011;4768;42.664;23.240;2022-10-13T03:01:04;31.57;;;17.43;;
9459;SDS011;4768;42.664;23.240;2022-10-13T03:03:31;29.97;;;16.23;;
9459;SDS011;4768;42.664;23.240;2022-10-13T03:05:58;28.03;;;16.03;;
9459;SDS011;4768;42.664;23.240;2022-10-13T03:08:26;24.90;;;16.00;;
9459;SDS011;4768;42.664;23.240;2022-10-13T03:10:53;24.40;;;16.23;;
9459;SDS011;4768;42.664;23.240;2022-10-13T03:13:19;27.43;;;16.77;;
9459;SDS011;4768;42.664;23.240;2022-10-13T03:15:46;28.13;;;15.90;;
9459;SDS011;4768;42.664;23.240;2022-10-13T03:18:13;27.03;;;16.90;;
9459;SDS011;4768;42.664;23.240;2022-10-13T03:20:40;28.40;;;17.90;;
9459;SDS011;4768;42.664;23.240;2022-10-13T03:23:07;26.90;;;15.93;;
9459;SDS011;4768;42.664;23.240;2022-10-13T03:25:35;27.47;;;17.67;;
9459;SDS011;4768;42.664;23.240;2022-10-13T03:28:02;26.17;;;16.83;;
9459;SDS011;4768;42.664;23.240;2022-10-13T03:30:28;23.87;;;15.97;;
9459;SDS011;4768;42.664;23.240;2022-10-13T03:32:55;27.73;;;16.60;;
9459;SDS011;4768;42.664;23.240;2022-10-13T03:35:22;29.03;;;16.23;;
9459;SDS011;4768;42.664;23.240;2022-10-13T03:37:49;27.37;;;16.00;;
9459;SDS011;4768;42.664;23.240;2022-10-13T03:40:15;27.07;;;16.30;;
9459;SDS011;4768;42.664;23.240;2022-10-13T03:42:43;28.93;;;16.40;;
9459;SDS011;4768;42.664;23.240;2022-10-13T03:45:10;23.97;;;15.43;;
9459;SDS011;4768;42.664;23.240;2022-10-13T03:47:37;48.60;;;24.17;;
9459;SDS011;4768;42.664;23.240;2022-10-13T03:50:04;33.87;;;18.57;;
9459;SDS011;4768;42.664;23.240;2022-10-13T03:52:32;32.47;;;19.77;;
9459;SDS011;4768;42.664;23.240;2022-10-13T03:54:59;33.73;;;19.33;;
9459;SDS011;4768;42.664;23.240;2022-10-13T03:57:25;32.10;;;20.00;;
9459;SDS011;4768;42.664;23.240;2022-10-13T03:59:53;29.13;;;17.30;;
9459;SDS011;4768;42.664;23.240;2022-10-13T04:02:21;27.00;;;17.87;;
9459;SDS011;4768;42.664;23.240;2022-10-13T04:04:48;35.23;;;19.63;;
9459;SDS011;4768;42.664;23.240;2022-10-13T04:07:15;35.47;;;20.57;;
9459;SDS011;4768;42.664;23.240;2022-10-13T04:09:42;35.50;;;19.63;;
9459;SDS011;4768;42.664;23.240;2022-10-13T04:12:09;32.63;;;18.87;;
9459;SDS011;4768;42.664;23.240;2022-10-13T04:14:36;38.53;;;20.93;;
9459;SDS011;4768;42.664;23.240;2022-10-13T04:17:04;34.40;;;19.83;;
9459;SDS011;4768;42.664;23.240;2022-10-13T04:19:30;31.90;;;20.10;;
9459;SDS011;4768;42.664;23.240;2022-10-13T04:21:57;32.83;;;19.03;;
9459;SDS011;4768;42.664;23.240;2022-10-13T04:24:24;30.50;;;19.10;;
9459;SDS011;4768;42.664;23.240;2022-10-13T04:26:51;35.57;;;20.77;;
9459;SDS011;4768;42.664;23.240;2022-10-13T04:29:17;36.53;;;22.53;;
9459;SDS011;4768;42.664;23.240;2022-10-13T04:31:44;46.10;;;26.80;;
9459;SDS011;4768;42.664;23.240;2022-10-13T04:34:12;36.00;;;21.03;;
9459;SDS011;4768;42.664;23.240;2022-10-13T04:36:39;35.90;;;20.13;;
9459;SDS011;4768;42.664;23.240;2022-10-13T04:39:06;38.37;;;20.23;;
9459;SDS011;4768;42.664;23.240;2022-10-13T04:41:32;33.87;;;20.00;;
9459;SDS011;4768;42.664;23.240;2022-10-13T04:43:59;39.63;;;20.90;;
9459;SDS011;4768;42.664;23.240;2022-10-13T04:46:26;35.57;;;19.87;;
9459;SDS011;4768;42.664;23.240;2022-10-13T04:48:53;31.00;;;19.60;;
9459;SDS011;4768;42.664;23.240;2022-10-13T04:51:23;34.80;;;19.57;;
9459;SDS011;4768;42.664;23.240;2022-10-13T04:53:55;31.77;;;19.17;;
9459;SDS011;4768;42.664;23.240;2022-10-13T04:56:23;35.37;;;19.93;;
9459;SDS011;4768;42.664;23.240;2022-10-13T04:58:50;31.97;;;19.67;;
9459;SDS011;4768;42.664;23.240;2022-10-13T05:01:19;52.63;;;25.47;;
9459;SDS011;4768;42.664;23.240;2022-10-13T05:03:49;35.03;;;22.00;;
9459;SDS011;4768;42.664;23.240;2022-10-13T05:06:16;41.17;;;21.50;;
9459;SDS011;4768;42.664;23.240;2022-10-13T05:08:46;34.47;;;20.23;;
9459;SDS011;4768;42.664;23.240;2022-10-13T05:11:13;36.53;;;21.53;;
9459;SDS011;4768;42.664;23.240;2022-10-13T05:13:40;291.20;;;96.17;;
9459;SDS011;4768;42.664;23.240;2022-10-13T05:16:07;181.00;;;66.03;;
9459;SDS011;4768;42.664;23.240;2022-10-13T05:18:34;99.10;;;47.33;;
9459;SDS011;4768;42.664;23.240;2022-10-13T05:21:05;68.43;;;31.67;;
9459;SDS011;4768;42.664;23.240;2022-10-13T05:23:32;57.83;;;27.67;;
9459;SDS011;4768;42.664;23.240;2022-10-13T05:26:02;43.07;;;23.40;;
9459;SDS011;4768;42.664;23.240;2022-10-13T05:28:29;41.10;;;22.93;;
9459;SDS011;4768;42.664;23.240;2022-10-13T05:30:56;37.90;;;21.53;;
9459;SDS011;4768;42.664;23.240;2022-10-13T05:33:23;39.33;;;21.97;;
9459;SDS011;4768;42.664;23.240;2022-10-13T05:35:49;48.30;;;26.10;;
9459;SDS011;4768;42.664;23.240;2022-10-13T05:38:16;49.83;;;28.33;;
9459;SDS011;4768;42.664;23.240;2022-10-13T05:40:43;62.77;;;30.60;;
9459;SDS011;4768;42.664;23.240;2022-10-13T05:43:11;52.70;;;26.43;;
9459;SDS011;4768;42.664;23.240;2022-10-13T05:45:37;42.57;;;24.30;;
9459;SDS011;4768;42.664;23.240;2022-10-13T05:48:05;40.17;;;22.87;;
9459;SDS011;4768;42.664;23.240;2022-10-13T05:50:32;41.70;;;21.87;;
9459;SDS011;4768;42.664;23.240;2022-10-13T05:52:59;33.90;;;21.90;;
9459;SDS011;4768;42.664;23.240;2022-10-13T05:55:26;38.80;;;20.80;;
9459;SDS011;4768;42.664;23.240;2022-10-13T05:57:53;38.57;;;22.20;;
9459;SDS011;4768;42.664;23.240;2022-10-13T06:00:21;37.10;;;21.17;;
9459;SDS011;4768;42.664;23.240;2022-10-13T06:02:50;36.30;;;21.97;;
9459;SDS011;4768;42.664;23.240;2022-10-13T06:05:21;40.90;;;23.40;;
9459;SDS011;4768;42.664;23.240;2022-10-13T06:07:50;32.27;;;20.27;;
9459;SDS011;4768;42.664;23.240;2022-10-13T06:10:18;36.53;;;21.37;;
9459;SDS011;4768;42.664;23.240;2022-10-13T06:12:45;38.30;;;22.00;;
9459;SDS011;4768;42.664;23.240;2022-10-13T06:15:12;43.67;;;22.13;;
9459;SDS011;4768;42.664;23.240;2022-10-13T06:17:40;31.50;;;18.23;;
9459;SDS011;4768;42.664;23.240;2022-10-13T06:20:08;33.57;;;19.60;;
9459;SDS011;4768;42.664;23.240;2022-10-13T06:22:35;27.07;;;18.43;;
9459;SDS011;4768;42.664;23.240;2022-10-13T06:25:03;31.53;;;19.43;;
9459;SDS011;4768;42.664;23.240;2022-10-13T06:27:31;26.77;;;17.73;;
9459;SDS011;4768;42.664;23.240;2022-10-13T06:29:58;36.57;;;18.67;;
9459;SDS011;4768;42.664;23.240;2022-10-13T06:32:25;30.47;;;18.10;;
9459;SDS011;4768;42.664;23.240;2022-10-13T06:34:53;25.37;;;16.73;;
9459;SDS011;4768;42.664;23.240;2022-10-13T06:37:20;25.60;;;18.17;;
9459;SDS011;4768;42.664;23.240;2022-10-13T06:39:47;32.10;;;18.63;;
9459;SDS011;4768;42.664;23.240;2022-10-13T06:42:13;27.33;;;18.07;;
9459;SDS011;4768;42.664;23.240;2022-10-13T06:44:40;27.13;;;18.43;;
9459;SDS011;4768;42.664;23.240;2022-10-13T06:47:07;26.07;;;18.20;;
9459;SDS011;4768;42.664;23.240;2022-10-13T06:49:34;27.60;;;18.37;;
9459;SDS011;4768;42.664;23.240;2022-10-13T06:52:02;29.37;;;17.47;;
9459;SDS011;4768;42.664;23.240;2022-10-13T06:54:29;26.23;;;17.90;;
9459;SDS011;4768;42.664;23.240;2022-10-13T06:56:56;27.07;;;18.10;;
9459;SDS011;4768;42.664;23.240;2022-10-13T06:59:23;24.60;;;16.77;;
9459;SDS011;4768;42.664;23.240;2022-10-13T07:01:51;25.67;;;17.30;;
9459;SDS011;4768;42.664;23.240;2022-10-13T07:04:18;26.37;;;17.30;;
9459;SDS011;4768;42.664;23.240;2022-10-13T07:06:45;26.33;;;16.50;;
9459;SDS011;4768;42.664;23.240;2022-10-13T07:09:13;24.83;;;17.23;;
9459;SDS011;4768;42.664;23.240;2022-10-13T07:11:42;28.03;;;18.67;;
9459;SDS011;4768;42.664;23.240;2022-10-13T07:14:09;24.20;;;18.33;;
9459;SDS011;4768;42.664;23.240;2022-10-13T07:16:36;26.00;;;18.50;;
9459;SDS011;4768;42.664;23.240;2022-10-13T07:19:03;24.77;;;19.10;;
9459;SDS011;4768;42.664;23.240;2022-10-13T07:21:30;28.37;;;17.87;;
9459;SDS011;4768;42.664;23.240;2022-10-13T07:23:57;28.77;;;17.83;;
9459;SDS011;4768;42.664;23.240;2022-10-13T07:26:25;29.37;;;18.57;;
9459;SDS011;4768;42.664;23.240;2022-10-13T07:28:51;25.17;;;17.90;;
9459;SDS011;4768;42.664;23.240;2022-10-13T07:31:18;23.07;;;17.73;;
9459;SDS011;4768;42.664;23.240;2022-10-13T07:33:47;27.53;;;19.27;;
9459;SDS011;4768;42.664;23.240;2022-10-13T07:36:15;29.53;;;18.80;;
9459;SDS011;4768;42.664;23.240;2022-10-13T07:38:41;31.07;;;20.33;;
9459;SDS011;4768;42.664;23.240;2022-10-13T07:41:09;27.83;;;19.07;;
9459;SDS011;4768;42.664;23.240;2022-10-13T07:43:38;33.23;;;21.27;;
9459;SDS011;4768;42.664;23.240;2022-10-13T07:46:05;28.03;;;19.70;;
9459;SDS011;4768;42.664;23.240;2022-10-13T07:48:33;29.80;;;19.20;;
9459;SDS011;4768;42.664;23.240;2022-10-13T07:51:01;26.53;;;17.63;;
9459;SDS011;4768;42.664;23.240;2022-10-13T07:53:29;25.17;;;17.17;;
9459;SDS011;4768;42.664;23.240;2022-10-13T07:55:58;25.07;;;19.07;;
9459;SDS011;4768;42.664;23.240;2022-10-13T07:58:25;25.47;;;17.30;;
9459;SDS011;4768;42.664;23.240;2022-10-13T08:00:56;27.93;;;17.23;;
9459;SDS011;4768;42.664;23.240;2022-10-13T08:03:24;22.83;;;17.00;;
9459;SDS011;4768;42.664;23.240;2022-10-13T08:05:52;26.67;;;16.23;;
9459;SDS011;4768;42.664;23.240;2022-10-13T08:08:19;25.30;;;16.57;;
9459;SDS011;4768;42.664;23.240;2022-10-13T08:10:46;24.03;;;16.47;;
9459;SDS011;4768;42.664;23.240;2022-10-13T08:13:13;27.70;;;16.73;;
9459;SDS011;4768;42.664;23.240;2022-10-13T08:15:40;25.67;;;17.10;;
9459;SDS011;4768;42.664;23.240;2022-10-13T08:18:09;27.93;;;18.57;;
9459;SDS011;4768;42.664;23.240;2022-10-13T08:20:38;25.00;;;16.63;;
9459;SDS011;4768;42.664;23.240;2022-10-13T08:23:04;29.13;;;17.23;;
9459;SDS011;4768;42.664;23.240;2022-10-13T08:25:35;25.07;;;17.63;;
9459;SDS011;4768;42.664;23.240;2022-10-13T08:28:03;27.23;;;17.17;;
9459;SDS011;4768;42.664;23.240;2022-10-13T08:30:31;29.60;;;17.97;;
9459;SDS011;4768;42.664;23.240;2022-10-13T08:32:57;34.17;;;18.87;;
9459;SDS011;4768;42.664;23.240;2022-10-13T08:35:26;25.03;;;16.50;;
9459;SDS011;4768;42.664;23.240;2022-10-13T08:37:52;26.13;;;17.37;;
9459;SDS011;4768;42.664;23.240;2022-10-13T08:40:19;25.37;;;16.73;;
9459;SDS011;4768;42.664;23.240;2022-10-13T08:42:47;23.77;;;17.47;;
9459;SDS011;4768;42.664;23.240;2022-10-13T08:45:14;25.50;;;18.07;;
9459;SDS011;4768;42.664;23.240;2022-10-13T08:47:46;30.27;;;18.77;;
9459;SDS011;4768;42.664;23.240;2022-10-13T08:50:16;25.87;;;17.63;;
9459;SDS011;4768;42.664;23.240;2022-10-13T08:52:48;22.97;;;17.20;;
9459;SDS011;4768;42.664;23.240;2022-10-13T08:55:26;23.13;;;16.17;;
9459;SDS011;4768;42.664;23.240;2022-10-13T08:57:58;25.43;;;17.63;;
9459;SDS011;4768;42.664;23.240;2022-10-13T09:00:27;24.83;;;17.20;;
9459;SDS011;4768;42.664;23.240;2022-10-13T09:02:56;25.23;;;18.03;;
9459;SDS011;4768;42.664;23.240;2022-10-13T09:05:35;27.03;;;18.07;;
9459;SDS011;4768;42.664;23.240;2022-10-13T09:08:10;23.53;;;15.87;;
9459;SDS011;4768;42.664;23.240;2022-10-13T09:10:47;28.57;;;18.33;;
9459;SDS011;4768;42.664;23.240;2022-10-13T09:13:15;24.97;;;17.50;;
9459;SDS011;4768;42.664;23.240;2022-10-13T09:15:42;29.30;;;18.73;;
9459;SDS011;4768;42.664;23.240;2022-10-13T09:18:10;31.40;;;19.13;;
9459;SDS011;4768;42.664;23.240;2022-10-13T09:20:39;28.53;;;18.03;;
9459;SDS011;4768;42.664;23.240;2022-10-13T09:23:07;27.90;;;19.23;;
9459;SDS011;4768;42.664;23.240;2022-10-13T09:25:45;25.60;;;17.27;;
9459;SDS011;4768;42.664;23.240;2022-10-13T09:28:15;34.70;;;19.20;;
9459;SDS011;4768;42.664;23.240;2022-10-13T09:30:45;33.37;;;19.33;;
9459;SDS011;4768;42.664;23.240;2022-10-13T09:33:15;37.03;;;18.80;;
9459;SDS011;4768;42.664;23.240;2022-10-13T09:35:49;31.93;;;18.70;;
9459;SDS011;4768;42.664;23.240;2022-10-13T09:38:37;29.43;;;19.90;;
9459;SDS011;4768;42.664;23.240;2022-10-13T09:41:05;29.60;;;19.27;;
9459;SDS011;4768;42.664;23.240;2022-10-13T09:43:40;32.33;;;21.27;;
9459;SDS011;4768;42.664;23.240;2022-10-13T09:46:12;29.90;;;18.60;;
9459;SDS011;4768;42.664;23.240;2022-10-13T09:48:47;26.60;;;17.97;;
9459;SDS011;4768;42.664;23.240;2022-10-13T09:51:34;22.27;;;16.93;;
9459;SDS011;4768;42.664;23.240;2022-10-13T09:54:05;29.90;;;18.87;;
9459;SDS011;4768;42.664;23.240;2022-10-13T09:56:49;23.50;;;16.60;;
9459;SDS011;4768;42.664;23.240;2022-10-13T09:59:23;27.40;;;16.83;;
9459;SDS011;4768;42.664;23.240;2022-10-13T10:01:57;28.57;;;17.27;;
9459;SDS011;4768;42.664;23.240;2022-10-13T10:04:29;25.80;;;16.53;;
9459;SDS011;4768;42.664;23.240;2022-10-13T10:07:00;26.07;;;16.00;;
9459;SDS011;4768;42.664;23.240;2022-10-13T10:09:37;24.67;;;18.03;;
9459;SDS011;4768;42.664;23.240;2022-10-13T10:12:08;25.90;;;17.37;;
9459;SDS011;4768;42.664;23.240;2022-10-13T10:14:40;31.03;;;17.97;;
9459;SDS011;4768;42.664;23.240;2022-10-13T10:17:10;25.07;;;16.77;;
9459;SDS011;4768;42.664;23.240;2022-10-13T10:19:51;34.50;;;18.23;;
9459;SDS011;4768;42.664;23.240;2022-10-13T10:22:28;26.87;;;18.43;;
9459;SDS011;4768;42.664;23.240;2022-10-13T10:25:06;28.13;;;17.30;;
9459;SDS011;4768;42.664;23.240;2022-10-13T10:27:44;24.00;;;16.40;;
9459;SDS011;4768;42.664;23.240;2022-10-13T10:30:18;22.47;;;17.03;;
9459;SDS011;4768;42.664;23.240;2022-10-13T10:32:46;25.23;;;17.27;;
9459;SDS011;4768;42.664;23.240;2022-10-13T10:35:19;23.63;;;15.83;;
9459;SDS011;4768;42.664;23.240;2022-10-13T10:38:01;26.00;;;17.83;;
9459;SDS011;4768;42.664;23.240;2022-10-13T10:40:35;26.80;;;16.90;;
9459;SDS011;4768;42.664;23.240;2022-10-13T10:46:13;27.17;;;16.83;;
9459;SDS011;4768;42.664;23.240;2022-10-13T10:48:42;31.33;;;16.70;;
9459;SDS011;4768;42.664;23.240;2022-10-13T10:51:12;24.20;;;16.47;;
9459;SDS011;4768;42.664;23.240;2022-10-13T10:53:44;26.63;;;17.57;;
9459;SDS011;4768;42.664;23.240;2022-10-13T10:56:23;27.80;;;16.67;;
9459;SDS011;4768;42.664;23.240;2022-10-13T10:59:01;23.87;;;16.13;;
9459;SDS011;4768;42.664;23.240;2022-10-13T11:01:37;27.47;;;16.33;;
9459;SDS011;4768;42.664;23.240;2022-10-13T11:04:30;25.40;;;16.23;;
9459;SDS011;4768;42.664;23.240;2022-10-13T11:07:01;21.77;;;15.77;;
9459;SDS011;4768;42.664;23.240;2022-10-13T11:12:43;27.00;;;15.80;;
9459;SDS011;4768;42.664;23.240;2022-10-13T11:15:12;26.43;;;15.53;;
9459;SDS011;4768;42.664;23.240;2022-10-13T11:17:41;21.20;;;15.03;;
9459;SDS011;4768;42.664;23.240;2022-10-13T11:23:30;21.03;;;14.93;;
9459;SDS011;4768;42.664;23.240;2022-10-13T11:28:47;21.20;;;15.07;;
9459;SDS011;4768;42.664;23.240;2022-10-13T11:31:28;26.17;;;15.23;;
9459;SDS011;4768;42.664;23.240;2022-10-13T11:33:59;24.77;;;14.30;;
9459;SDS011;4768;42.664;23.240;2022-10-13T11:36:31;21.43;;;14.30;;
9459;SDS011;4768;42.664;23.240;2022-10-13T11:42:02;22.43;;;14.40;;
9459;SDS011;4768;42.664;23.240;2022-10-13T11:44:39;18.13;;;13.83;;
9459;SDS011;4768;42.664;23.240;2022-10-13T11:47:16;20.40;;;13.03;;
9459;SDS011;4768;42.664;23.240;2022-10-13T11:49:59;19.93;;;12.90;;
9459;SDS011;4768;42.664;23.240;2022-10-13T11:52:42;20.63;;;14.47;;
9459;SDS011;4768;42.664;23.240;2022-10-13T11:55:33;26.33;;;14.10;;
9459;SDS011;4768;42.664;23.240;2022-10-13T11:58:08;27.83;;;13.53;;
9459;SDS011;4768;42.664;23.240;2022-10-13T12:00:49;20.20;;;13.47;;
9459;SDS011;4768;42.664;23.240;2022-10-13T12:03:22;19.83;;;14.47;;
9459;SDS011;4768;42.664;23.240;2022-10-13T12:05:51;19.10;;;13.43;;
9459;SDS011;4768;42.664;23.240;2022-10-13T12:08:19;27.57;;;13.50;;
9459;SDS011;4768;42.664;23.240;2022-10-13T12:10:50;18.43;;;13.40;;
9459;SDS011;4768;42.664;23.240;2022-10-13T12:13:22;20.90;;;12.73;;
9459;SDS011;4768;42.664;23.240;2022-10-13T12:15:56;23.57;;;13.33;;
9459;SDS011;4768;42.664;23.240;2022-10-13T12:18:26;21.27;;;13.90;;
9459;SDS011;4768;42.664;23.240;2022-10-13T12:20:54;20.73;;;13.77;;
9459;SDS011;4768;42.664;23.240;2022-10-13T12:23:22;23.47;;;14.27;;
9459;SDS011;4768;42.664;23.240;2022-10-13T12:25:50;18.07;;;12.97;;
9459;SDS011;4768;42.664;23.240;2022-10-13T12:28:22;16.07;;;11.63;;
9459;SDS011;4768;42.664;23.240;2022-10-13T12:30:51;22.53;;;12.27;;
9459;SDS011;4768;42.664;23.240;2022-10-13T12:33:21;20.27;;;12.17;;
9459;SDS011;4768;42.664;23.240;2022-10-13T12:35:52;20.87;;;12.23;;
9459;SDS011;4768;42.664;23.240;2022-10-13T12:38:19;18.47;;;12.53;;
9459;SDS011;4768;42.664;23.240;2022-10-13T12:40:47;18.50;;;12.20;;
9459;SDS011;4768;42.664;23.240;2022-10-13T12:43:17;18.40;;;11.87;;
9459;SDS011;4768;42.664;23.240;2022-10-13T12:45:49;18.00;;;11.47;;
9459;SDS011;4768;42.664;23.240;2022-10-13T12:48:31;19.70;;;10.93;;
9459;SDS011;4768;42.664;23.240;2022-10-13T12:51:13;14.80;;;10.70;;
9459;SDS011;4768;42.664;23.240;2022-10-13T12:53:42;17.33;;;10.83;;
9459;SDS011;4768;42.664;23.240;2022-10-13T12:56:17;14.57;;;9.73;;
9459;SDS011;4768;42.664;23.240;2022-10-13T12:58:50;14.60;;;9.00;;
9459;SDS011;4768;42.664;23.240;2022-10-13T13:04:15;12.57;;;8.43;;
9459;SDS011;4768;42.664;23.240;2022-10-13T13:06:53;12.80;;;8.63;;
9459;SDS011;4768;42.664;23.240;2022-10-13T13:09:24;11.73;;;7.40;;
9459;SDS011;4768;42.664;23.240;2022-10-13T13:14:53;10.97;;;7.60;;
9459;SDS011;4768;42.664;23.240;2022-10-13T13:17:22;11.57;;;8.07;;
9459;SDS011;4768;42.664;23.240;2022-10-13T13:19:53;9.67;;;6.87;;
9459;SDS011;4768;42.664;23.240;2022-10-13T13:22:23;9.40;;;7.27;;
9459;SDS011;4768;42.664;23.240;2022-10-13T13:24:50;11.67;;;7.20;;
9459;SDS011;4768;42.664;23.240;2022-10-13T13:27:18;11.60;;;7.80;;
9459;SDS011;4768;42.664;23.240;2022-10-13T13:29:49;10.73;;;8.30;;
9459;SDS011;4768;42.664;23.240;2022-10-13T13:32:16;10.50;;;8.00;;
9459;SDS011;4768;42.664;23.240;2022-10-13T13:34:44;12.10;;;8.00;;
9459;SDS011;4768;42.664;23.240;2022-10-13T13:37:13;12.07;;;7.77;;
9459;SDS011;4768;42.664;23.240;2022-10-13T13:39:47;9.37;;;7.07;;
9459;SDS011;4768;42.664;23.240;2022-10-13T13:42:14;11.70;;;7.40;;
9459;SDS011;4768;42.664;23.240;2022-10-13T13:44:41;11.00;;;7.40;;
9459;SDS011;4768;42.664;23.240;2022-10-13T13:47:11;12.63;;;7.77;;
9459;SDS011;4768;42.664;23.240;2022-10-13T13:49:41;10.90;;;7.80;;
9459;SDS011;4768;42.664;23.240;2022-10-13T13:52:08;10.47;;;7.93;;
9459;SDS011;4768;42.664;23.240;2022-10-13T13:54:36;10.97;;;7.53;;
9459;SDS011;4768;42.664;23.240;2022-10-13T13:57:03;14.80;;;8.70;;
9459;SDS011;4768;42.664;23.240;2022-10-13T13:59:30;11.97;;;7.83;;
9459;SDS011;4768;42.664;23.240;2022-10-13T14:01:57;11.97;;;8.23;;
9459;SDS011;4768;42.664;23.240;2022-10-13T14:04:23;15.53;;;8.20;;
9459;SDS011;4768;42.664;23.240;2022-10-13T14:06:50;11.30;;;8.33;;
9459;SDS011;4768;42.664;23.240;2022-10-13T14:09:17;12.20;;;8.30;;
9459;SDS011;4768;42.664;23.240;2022-10-13T14:11:45;14.37;;;9.10;;
9459;SDS011;4768;42.664;23.240;2022-10-13T14:14:12;15.90;;;9.13;;
9459;SDS011;4768;42.664;23.240;2022-10-13T14:16:39;14.90;;;8.60;;
9459;SDS011;4768;42.664;23.240;2022-10-13T14:19:06;12.97;;;8.37;;
9459;SDS011;4768;42.664;23.240;2022-10-13T14:21:34;18.20;;;9.60;;
9459;SDS011;4768;42.664;23.240;2022-10-13T14:24:01;15.60;;;9.23;;
9459;SDS011;4768;42.664;23.240;2022-10-13T14:26:29;20.57;;;10.20;;
9459;SDS011;4768;42.664;23.240;2022-10-13T14:28:57;13.20;;;8.93;;
9459;SDS011;4768;42.664;23.240;2022-10-13T14:31:23;13.10;;;10.13;;
9459;SDS011;4768;42.664;23.240;2022-10-13T14:33:50;15.83;;;9.83;;
9459;SDS011;4768;42.664;23.240;2022-10-13T14:36:17;16.20;;;9.40;;
9459;SDS011;4768;42.664;23.240;2022-10-13T14:38:44;18.33;;;9.70;;
9459;SDS011;4768;42.664;23.240;2022-10-13T14:41:10;13.13;;;9.30;;
9459;SDS011;4768;42.664;23.240;2022-10-13T14:43:39;16.63;;;9.60;;
9459;SDS011;4768;42.664;23.240;2022-10-13T14:46:07;12.13;;;9.37;;
9459;SDS011;4768;42.664;23.240;2022-10-13T14:48:34;15.43;;;10.03;;
9459;SDS011;4768;42.664;23.240;2022-10-13T14:51:02;19.13;;;9.93;;
9459;SDS011;4768;42.664;23.240;2022-10-13T14:53:31;16.43;;;9.93;;
9459;SDS011;4768;42.664;23.240;2022-10-13T14:55:58;12.23;;;9.03;;
9459;SDS011;4768;42.664;23.240;2022-10-13T14:58:25;12.70;;;8.43;;
9459;SDS011;4768;42.664;23.240;2022-10-13T15:00:52;14.77;;;8.57;;
9459;SDS011;4768;42.664;23.240;2022-10-13T15:03:21;12.77;;;8.33;;
9459;SDS011;4768;42.664;23.240;2022-10-13T15:05:48;16.07;;;8.80;;
9459;SDS011;4768;42.664;23.240;2022-10-13T15:08:17;14.47;;;9.10;;
9459;SDS011;4768;42.664;23.240;2022-10-13T15:10:44;13.63;;;9.17;;
9459;SDS011;4768;42.664;23.240;2022-10-13T15:15:56;15.07;;;8.83;;